createdAt,value
2022-10-25T00:00:29.719Z,13.29
2022-10-25T00:02:57.946Z,13.30
2022-10-25T00:05:27.642Z,13.26
2022-10-25T00:07:55.795Z,13.32
2022-10-25T00:10:25.725Z,13.30
2022-10-25T00:12:54.389Z,13.33
2022-10-25T00:15:23.073Z,13.40
2022-10-25T00:17:58.132Z,13.39
2022-10-25T00:20:27.777Z,13.38
2022-10-25T00:22:55.957Z,13.36
2022-10-25T00:25:24.157Z,13.38
2022-10-25T00:27:52.501Z,13.36
2022-10-25T00:30:20.729Z,13.44
2022-10-25T00:32:52.813Z,13.48
2022-10-25T00:35:21.182Z,13.46
2022-10-25T00:37:50.820Z,13.50
2022-10-25T00:40:20.032Z,13.47
2022-10-25T00:42:48.590Z,13.48
2022-10-25T00:45:23.368Z,13.49
2022-10-25T00:47:56.790Z,13.48
2022-10-25T00:50:45.147Z,13.45
2022-10-25T00:53:18.260Z,13.47
2022-10-25T00:55:49.680Z,13.50
2022-10-25T00:58:21.222Z,13.50
2022-10-25T01:00:50.518Z,13.44
2022-10-25T01:03:21.862Z,13.45
2022-10-25T01:05:54.059Z,13.46
2022-10-25T01:08:24.481Z,13.48
2022-10-25T01:10:55.770Z,13.46
2022-10-25T01:13:24.711Z,13.45
2022-10-25T01:16:04.521Z,13.40
2022-10-25T01:18:43.401Z,13.41
2022-10-25T01:21:49.061Z,13.37
2022-10-25T01:25:05.288Z,13.35
2022-10-25T01:27:52.482Z,13.37
2022-10-25T01:30:23.296Z,13.37
2022-10-25T01:33:15.895Z,13.36
2022-10-25T01:35:54.176Z,13.33
2022-10-25T01:38:32.280Z,13.29
2022-10-25T01:41:10.584Z,13.20
2022-10-25T01:43:46.940Z,13.20
2022-10-25T01:46:22.714Z,13.17
2022-10-25T01:49:00.740Z,13.17
2022-10-25T01:51:29.768Z,13.16
2022-10-25T01:53:58.449Z,13.16
2022-10-25T01:56:30.983Z,13.19
2022-10-25T01:59:23.686Z,13.24
2022-10-25T02:02:03.704Z,13.31
2022-10-25T02:04:45.022Z,13.25
2022-10-25T02:07:18.234Z,13.26
2022-10-25T02:09:57.611Z,13.29
2022-10-25T02:12:31.639Z,13.25
2022-10-25T02:15:08.596Z,13.25
2022-10-25T02:17:42.078Z,13.29
2022-10-25T02:20:16.909Z,13.24
2022-10-25T02:22:46.002Z,13.19
2022-10-25T02:25:15.895Z,13.14
2022-10-25T02:27:46.298Z,13.15
2022-10-25T02:30:15.128Z,13.12
2022-10-25T02:32:43.735Z,13.06
2022-10-25T02:35:15.848Z,13.07
2022-10-25T02:37:44.742Z,13.04
2022-10-25T02:40:13.533Z,12.99
2022-10-25T02:42:41.916Z,12.97
2022-10-25T02:45:10.924Z,12.93
2022-10-25T02:47:39.208Z,12.91
2022-10-25T02:50:08.004Z,12.95
2022-10-25T02:52:37.507Z,12.89
2022-10-25T02:55:06.523Z,12.85
2022-10-25T02:57:35.121Z,12.85
2022-10-25T03:00:06.809Z,12.78
2022-10-25T03:02:35.147Z,12.76
2022-10-25T03:05:06.572Z,12.77
2022-10-25T03:07:35.827Z,12.78
2022-10-25T03:10:09.121Z,12.77
2022-10-25T03:12:37.377Z,12.79
2022-10-25T03:15:09.981Z,12.74
2022-10-25T03:17:38.190Z,12.71
2022-10-25T03:20:07.506Z,12.75
2022-10-25T03:22:36.266Z,12.73
2022-10-25T03:27:40.225Z,12.82
2022-10-25T03:30:09.907Z,12.84
2022-10-25T03:32:38.563Z,12.85
2022-10-25T03:35:07.759Z,12.82
2022-10-25T03:37:36.074Z,12.76
2022-10-25T03:40:06.634Z,12.75
2022-10-25T03:42:34.763Z,12.71
2022-10-25T03:45:03.096Z,12.69
2022-10-25T03:47:31.436Z,12.70
2022-10-25T03:49:59.599Z,12.66
2022-10-25T03:52:27.809Z,12.60
2022-10-25T03:54:58.916Z,12.58
2022-10-25T03:57:28.483Z,12.52
2022-10-25T04:00:00.878Z,12.48
2022-10-25T04:02:29.350Z,12.56
2022-10-25T04:04:57.500Z,12.51
2022-10-25T04:07:25.695Z,12.48
2022-10-25T04:09:53.871Z,12.50
2022-10-25T04:12:22.091Z,12.51
2022-10-25T04:14:51.770Z,12.57
2022-10-25T04:17:20.017Z,12.51
2022-10-25T04:19:48.429Z,12.57
2022-10-25T04:22:16.643Z,12.59
2022-10-25T04:24:44.862Z,12.65
2022-10-25T04:27:13.125Z,12.65
2022-10-25T04:29:41.554Z,12.77
2022-10-25T04:32:11.883Z,12.79
2022-10-25T04:34:40.248Z,12.73
2022-10-25T04:37:08.425Z,12.81
2022-10-25T04:39:36.694Z,12.87
2022-10-25T04:42:05.038Z,12.84
2022-10-25T04:44:33.207Z,12.81
2022-10-25T04:47:01.457Z,12.73
2022-10-25T04:49:31.002Z,12.71
2022-10-25T04:51:59.785Z,12.67
2022-10-25T04:54:27.958Z,12.70
2022-10-25T04:56:58.238Z,12.70
2022-10-25T04:59:26.405Z,12.71
2022-10-25T05:01:54.614Z,12.70
2022-10-25T05:04:22.959Z,12.66
2022-10-25T05:06:52.473Z,12.66
2022-10-25T05:09:20.638Z,12.64
2022-10-25T05:11:49.379Z,12.66
2022-10-25T05:14:17.569Z,12.73
2022-10-25T05:16:45.768Z,12.77
2022-10-25T05:19:13.949Z,12.74
2022-10-25T05:21:42.181Z,12.77
2022-10-25T05:24:11.767Z,12.79
2022-10-25T05:26:40.075Z,12.77
2022-10-25T05:29:10.422Z,12.75
2022-10-25T05:31:40.531Z,12.80
2022-10-25T05:34:09.219Z,12.82
2022-10-25T05:36:37.433Z,12.85
2022-10-25T05:39:05.763Z,12.78
2022-10-25T05:41:37.138Z,12.72
2022-10-25T05:44:06.162Z,12.69
2022-10-25T05:46:34.375Z,12.64
2022-10-25T05:49:02.915Z,12.62
2022-10-25T05:51:35.079Z,12.63
2022-10-25T05:54:06.584Z,12.61
2022-10-25T05:56:37.425Z,12.62
2022-10-25T05:59:09.502Z,12.62
2022-10-25T06:01:43.902Z,12.64
2022-10-25T06:04:12.926Z,12.59
2022-10-25T06:06:42.398Z,12.58
2022-10-25T06:09:11.411Z,12.51
2022-10-25T06:11:41.582Z,12.49
2022-10-25T06:14:11.667Z,12.47
2022-10-25T06:16:40.199Z,12.43
2022-10-25T06:19:08.651Z,12.45
2022-10-25T06:21:37.196Z,12.38
2022-10-25T06:24:06.492Z,12.41
2022-10-25T06:26:34.620Z,12.55
2022-10-25T06:29:05.796Z,12.57
2022-10-25T06:31:34.395Z,12.64
2022-10-25T06:34:03.200Z,12.70
2022-10-25T06:36:32.729Z,12.73
2022-10-25T06:39:05.343Z,12.76
2022-10-25T06:41:37.039Z,12.80
2022-10-25T06:44:07.938Z,12.86
2022-10-25T06:47:04.530Z,12.88
2022-10-25T06:49:26.621Z,12.95
2022-10-25T06:51:55.087Z,13.01
2022-10-25T06:54:25.492Z,13.03
2022-10-25T06:56:53.841Z,13.05
2022-10-25T06:59:23.861Z,13.06
2022-10-25T07:01:52.578Z,13.05
2022-10-25T07:04:20.919Z,13.01
2022-10-25T07:06:51.508Z,13.02
2022-10-25T07:09:22.650Z,13.01
2022-10-25T07:11:51.173Z,13.02
2022-10-25T07:14:19.355Z,13.07
2022-10-25T07:16:49.281Z,13.11
2022-10-25T07:19:17.470Z,13.14
2022-10-25T07:21:48.815Z,13.15
2022-10-25T07:24:19.099Z,13.08
2022-10-25T07:26:52.853Z,13.18
2022-10-25T07:29:21.458Z,13.23
2022-10-25T07:31:51.127Z,13.29
2022-10-25T07:34:20.285Z,13.36
2022-10-25T07:36:48.422Z,13.22
2022-10-25T07:39:16.557Z,13.21
2022-10-25T07:41:44.737Z,13.21
2022-10-25T07:44:17.525Z,13.21
2022-10-25T07:46:48.063Z,13.16
2022-10-25T07:49:17.953Z,13.06
2022-10-25T07:51:46.294Z,13.04
2022-10-25T07:54:14.512Z,13.00
2022-10-25T07:56:42.752Z,12.95
2022-10-25T07:59:11.101Z,12.88
2022-10-25T08:01:39.300Z,12.84
2022-10-25T08:04:08.641Z,12.84
2022-10-25T08:06:38.154Z,12.76
2022-10-25T08:09:14.564Z,12.77
2022-10-25T08:11:43.586Z,12.84
2022-10-25T08:14:11.877Z,12.86
2022-10-25T08:16:40.219Z,12.90
2022-10-25T08:19:10.646Z,12.99
2022-10-25T08:21:40.169Z,13.18
2022-10-25T08:24:08.770Z,13.25
2022-10-25T08:26:37.293Z,13.33
2022-10-25T08:29:05.792Z,13.45
2022-10-25T08:31:34.389Z,13.56
2022-10-25T08:34:02.873Z,13.70
2022-10-25T08:36:31.287Z,13.81
2022-10-25T08:39:00.856Z,13.85
2022-10-25T08:41:41.574Z,13.86
2022-10-25T08:44:17.221Z,14.05
2022-10-25T08:46:55.796Z,14.00
2022-10-25T08:49:29.635Z,14.14
2022-10-25T08:51:59.458Z,14.19
2022-10-25T08:54:32.296Z,14.11
2022-10-25T08:57:16.419Z,14.05
2022-10-25T08:59:50.064Z,14.14
2022-10-25T09:02:24.781Z,14.19
2022-10-25T09:04:56.397Z,14.37
2022-10-25T09:07:49.925Z,14.64
2022-10-25T09:10:30.553Z,14.75
2022-10-25T09:13:10.637Z,15.01
2022-10-25T09:15:55.871Z,14.83
2022-10-25T09:18:37.622Z,14.63
2022-10-25T09:21:14.906Z,14.58
2022-10-25T09:23:56.162Z,14.84
2022-10-25T09:26:40.402Z,14.91
2022-10-25T09:29:15.188Z,14.85
2022-10-25T09:31:49.597Z,14.92
2022-10-25T09:34:21.248Z,14.82
2022-10-25T09:36:53.195Z,14.68
2022-10-25T09:39:23.247Z,14.78
2022-10-25T09:41:55.518Z,14.77
2022-10-25T09:44:35.909Z,14.69
2022-10-25T09:47:14.046Z,14.88
2022-10-25T09:49:48.057Z,14.98
2022-10-25T09:52:22.268Z,14.92
2022-10-25T09:54:54.991Z,15.07
2022-10-25T09:57:27.626Z,15.17
2022-10-25T09:59:55.872Z,15.53
2022-10-25T10:02:26.643Z,15.87
2022-10-25T10:04:55.578Z,15.92
2022-10-25T10:07:27.898Z,15.62
2022-10-25T10:10:00.315Z,15.61
2022-10-25T10:12:33.135Z,15.59
2022-10-25T10:15:05.886Z,15.66
2022-10-25T10:17:34.024Z,15.57
2022-10-25T10:20:15.394Z,15.60
2022-10-25T10:22:50.704Z,15.77
2022-10-25T10:25:22.615Z,15.51
2022-10-25T10:27:54.916Z,15.71
2022-10-25T10:30:29.837Z,16.07
2022-10-25T10:33:01.012Z,16.24
2022-10-25T10:35:32.748Z,16.47
2022-10-25T10:38:22.272Z,16.27
2022-10-25T10:40:51.953Z,16.33
2022-10-25T10:43:29.663Z,16.37
2022-10-25T10:46:03.842Z,16.62
2022-10-25T10:48:41.912Z,16.24
2022-10-25T10:54:24.324Z,16.46
2022-10-25T10:56:57.503Z,16.43
2022-10-25T10:59:36.175Z,16.58
2022-10-25T11:02:29.893Z,16.90
2022-10-25T11:04:59.347Z,17.00
2022-10-25T11:07:31.059Z,17.28
2022-10-25T11:10:23.088Z,17.61
2022-10-25T11:13:19.807Z,17.80
2022-10-25T11:16:06.044Z,17.32
2022-10-25T11:18:46.530Z,17.35
2022-10-25T11:21:29.542Z,17.48
2022-10-25T11:24:07.691Z,17.58
2022-10-25T11:26:50.034Z,17.66
2022-10-25T11:29:31.567Z,17.63
2022-10-25T11:32:09.639Z,17.64
2022-10-25T11:34:45.764Z,17.72
2022-10-25T11:37:22.212Z,17.64
2022-10-25T11:40:04.575Z,17.55
2022-10-25T11:42:57.131Z,17.67
2022-10-25T11:45:44.129Z,17.30
2022-10-25T11:48:32.604Z,16.87
2022-10-25T11:51:11.717Z,16.64
2022-10-25T11:54:14.855Z,16.98
2022-10-25T11:56:52.913Z,17.30
2022-10-25T11:59:26.308Z,17.75
2022-10-25T12:02:04.633Z,17.99
2022-10-25T12:04:52.520Z,17.96
2022-10-25T12:07:26.057Z,17.51
2022-10-25T12:10:04.318Z,17.11
2022-10-25T12:12:41.962Z,17.10
2022-10-25T12:15:15.428Z,17.11
2022-10-25T12:17:44.238Z,17.25
2022-10-25T12:20:22.805Z,17.14
2022-10-25T12:22:54.457Z,16.94
2022-10-25T12:25:26.960Z,16.95
2022-10-25T12:28:06.813Z,17.16
2022-10-25T12:30:36.084Z,17.28
2022-10-25T12:33:14.280Z,17.41
2022-10-25T12:35:51.084Z,17.40
2022-10-25T12:38:26.847Z,17.48
2022-10-25T12:41:01.029Z,17.51
2022-10-25T12:43:36.373Z,17.34
2022-10-25T12:46:36.997Z,17.62
2022-10-25T12:49:33.490Z,17.95
2022-10-25T12:52:26.958Z,17.83
2022-10-25T12:55:30.437Z,17.96
2022-10-25T12:58:12.642Z,17.92
2022-10-25T13:00:57.714Z,17.60
2022-10-25T13:03:51.241Z,17.67
2022-10-25T13:06:29.745Z,18.37
2022-10-25T13:09:05.550Z,18.39
2022-10-25T13:11:36.166Z,18.62
2022-10-25T13:14:05.112Z,18.43
2022-10-25T13:16:34.953Z,18.54
2022-10-25T13:19:30.554Z,18.69
2022-10-25T13:22:39.640Z,18.40
2022-10-25T13:25:19.080Z,18.09
2022-10-25T13:28:32.785Z,18.47
2022-10-25T13:31:44.417Z,18.82
2022-10-25T13:34:31.160Z,18.56
2022-10-25T13:37:01.064Z,18.21
2022-10-25T13:39:32.135Z,17.79
2022-10-25T13:42:10.452Z,17.87
2022-10-25T13:44:53.685Z,17.77
2022-10-25T13:47:36.877Z,17.77
2022-10-25T13:50:22.637Z,17.92
2022-10-25T13:53:02.500Z,18.13
2022-10-25T13:55:35.107Z,18.32
2022-10-25T13:58:44.371Z,18.09
2022-10-25T14:01:56.064Z,17.99
2022-10-25T14:04:41.210Z,17.73
2022-10-25T14:07:44.112Z,17.50
2022-10-25T14:10:26.698Z,17.63
2022-10-25T14:13:01.348Z,17.72
2022-10-25T14:15:38.824Z,17.60
2022-10-25T14:18:09.679Z,17.52
2022-10-25T14:20:40.437Z,17.35
2022-10-25T14:23:16.336Z,17.17
2022-10-25T14:25:52.036Z,17.03
2022-10-25T14:28:24.383Z,17.07
2022-10-25T14:30:55.568Z,17.14
2022-10-25T14:33:26.829Z,17.13
2022-10-25T14:35:58.171Z,17.18
2022-10-25T14:38:28.495Z,17.16
2022-10-25T14:40:58.122Z,17.09
2022-10-25T14:43:29.634Z,17.03
2022-10-25T14:45:59.617Z,16.94
2022-10-25T14:48:35.919Z,17.04
2022-10-25T14:51:13.274Z,17.10
2022-10-25T14:53:58.038Z,17.11
2022-10-25T14:56:33.404Z,16.92
2022-10-25T14:59:30.811Z,16.87
2022-10-25T15:02:15.570Z,16.78
2022-10-25T15:04:48.036Z,16.79
2022-10-25T15:07:23.129Z,16.75
2022-10-25T15:09:55.767Z,16.76
2022-10-25T15:12:28.044Z,16.73
2022-10-25T15:14:57.754Z,16.67
2022-10-25T15:17:28.876Z,16.61
2022-10-25T15:20:27.195Z,16.74
2022-10-25T15:23:15.552Z,16.66
2022-10-25T15:25:43.878Z,16.44
2022-10-25T15:28:13.311Z,16.27
2022-10-25T15:30:44.997Z,16.10
2022-10-25T15:33:16.410Z,16.12
2022-10-25T15:35:49.279Z,16.16
2022-10-25T15:38:19.612Z,16.16
2022-10-25T15:40:48.894Z,16.01
2022-10-25T15:43:17.032Z,16.04
2022-10-25T15:45:45.465Z,15.99
2022-10-25T15:48:16.217Z,15.88
2022-10-25T15:50:50.247Z,15.81
2022-10-25T15:53:20.190Z,15.69
2022-10-25T15:55:50.013Z,15.66
2022-10-25T15:58:18.248Z,15.63
2022-10-25T16:00:48.050Z,15.61
2022-10-25T16:03:22.260Z,15.66
2022-10-25T16:05:51.835Z,15.60
2022-10-25T16:08:21.508Z,15.57
2022-10-25T16:10:49.829Z,15.51
2022-10-25T16:13:25.936Z,15.39
2022-10-25T16:15:55.359Z,15.25
2022-10-25T16:20:59.207Z,14.96
2022-10-25T16:23:28.797Z,14.88
2022-10-25T16:25:57.162Z,14.84
2022-10-25T16:30:58.591Z,14.63
2022-10-25T16:33:26.919Z,14.51
2022-10-25T16:35:55.488Z,14.45
2022-10-25T16:38:23.618Z,14.39
2022-10-25T16:40:53.281Z,14.35
2022-10-25T16:43:21.405Z,14.26
2022-10-25T16:45:49.606Z,14.24
2022-10-25T16:48:17.782Z,14.12
2022-10-25T16:50:45.962Z,14.08
2022-10-25T16:53:14.944Z,14.05
2022-10-25T16:55:43.200Z,14.05
2022-10-25T16:58:12.821Z,14.09
2022-10-25T17:00:41.017Z,14.12
2022-10-25T17:03:10.448Z,14.04
2022-10-25T17:05:39.841Z,13.96
2022-10-25T17:08:08.096Z,13.85
2022-10-25T17:10:41.353Z,13.80
2022-10-25T17:13:15.649Z,13.68
2022-10-25T17:15:44.118Z,13.62
2022-10-25T17:18:15.960Z,13.54
2022-10-25T17:20:44.297Z,13.56
2022-10-25T17:23:12.463Z,13.52
2022-10-25T17:25:40.680Z,13.53
2022-10-25T17:28:08.826Z,13.58
2022-10-25T17:30:42.049Z,13.58
2022-10-25T17:33:10.275Z,13.51
2022-10-25T17:35:42.297Z,13.45
2022-10-25T17:38:10.705Z,13.39
2022-10-25T17:40:38.920Z,13.33
2022-10-25T17:43:07.112Z,13.29
2022-10-25T17:45:35.497Z,13.26
2022-10-25T17:48:05.380Z,13.33
2022-10-25T17:50:36.036Z,13.41
2022-10-25T17:53:04.277Z,13.39
2022-10-25T17:55:33.488Z,13.43
2022-10-25T17:58:02.464Z,13.40
2022-10-25T18:00:30.780Z,13.38
2022-10-25T18:03:01.867Z,13.29
2022-10-25T18:05:31.579Z,13.27
2022-10-25T18:07:59.700Z,13.21
2022-10-25T18:10:28.022Z,13.09
2022-10-25T18:12:56.363Z,13.06
2022-10-25T18:15:24.749Z,13.00
2022-10-25T18:17:53.160Z,13.00
2022-10-25T18:20:22.279Z,12.92
2022-10-25T18:22:53.415Z,12.94
2022-10-25T18:25:21.575Z,12.92
2022-10-25T18:27:50.689Z,12.89
2022-10-25T18:30:19.021Z,12.92
2022-10-25T18:32:47.204Z,12.93
2022-10-25T18:35:15.640Z,12.90
2022-10-25T18:37:43.801Z,12.92
2022-10-25T18:40:14.598Z,12.90
2022-10-25T18:42:42.779Z,12.87
2022-10-25T18:45:11.394Z,12.92
2022-10-25T18:47:40.868Z,12.84
2022-10-25T18:50:09.698Z,12.84
2022-10-25T18:52:37.875Z,12.84
2022-10-25T18:55:06.710Z,12.71
2022-10-25T18:57:36.366Z,12.71
2022-10-25T19:00:05.346Z,12.72
2022-10-25T19:02:37.624Z,12.73
2022-10-25T19:07:35.729Z,12.88
2022-10-25T19:10:04.219Z,12.93
2022-10-25T19:12:32.395Z,12.90
2022-10-25T19:15:01.893Z,12.91
2022-10-25T19:17:30.105Z,12.88
2022-10-25T19:19:58.271Z,12.95
2022-10-25T19:22:26.460Z,12.93
2022-10-25T19:24:54.665Z,12.99
2022-10-25T19:27:23.089Z,13.06
2022-10-25T19:29:51.209Z,13.04
2022-10-25T19:32:20.718Z,13.07
2022-10-25T19:34:48.868Z,13.06
2022-10-25T19:37:17.027Z,13.04
2022-10-25T19:39:45.190Z,13.04
2022-10-25T19:42:13.355Z,13.00
2022-10-25T19:44:41.520Z,13.00
2022-10-25T19:47:10.001Z,13.01
2022-10-25T19:49:39.530Z,13.04
2022-10-25T19:52:07.664Z,13.01
2022-10-25T19:54:35.762Z,13.04
2022-10-25T19:57:06.176Z,13.03
2022-10-25T19:59:34.487Z,13.01
2022-10-25T20:02:03.369Z,13.01
2022-10-25T20:04:31.693Z,13.00
2022-10-25T20:07:03.685Z,12.96
2022-10-25T20:09:32.124Z,12.94
2022-10-25T20:12:00.473Z,12.94
2022-10-25T20:14:30.785Z,12.94
2022-10-25T20:16:59.083Z,12.92
2022-10-25T20:19:27.194Z,12.94
2022-10-25T20:21:55.826Z,12.91
2022-10-25T20:24:25.400Z,12.93
2022-10-25T20:26:53.726Z,12.95
2022-10-25T20:29:24.041Z,12.96
2022-10-25T20:31:52.836Z,12.99
2022-10-25T20:34:21.751Z,13.02
2022-10-25T20:36:50.231Z,13.02
2022-10-25T20:39:18.486Z,12.97
2022-10-25T20:41:47.975Z,12.96
2022-10-25T20:44:16.131Z,12.94
2022-10-25T20:46:44.280Z,13.01
2022-10-25T20:49:12.706Z,13.01
2022-10-25T20:51:40.844Z,13.00
2022-10-25T20:54:10.033Z,13.03
2022-10-25T20:56:39.610Z,13.00
2022-10-25T20:59:09.696Z,12.93
2022-10-25T21:01:38.098Z,12.95
2022-10-25T21:04:06.425Z,12.93
2022-10-25T21:06:34.646Z,12.93
2022-10-25T21:09:03.027Z,12.93
2022-10-25T21:11:32.575Z,12.95
2022-10-25T21:14:00.752Z,12.95
2022-10-25T21:16:30.261Z,13.00
2022-10-25T21:18:58.389Z,13.04
2022-10-25T21:21:26.562Z,13.03
2022-10-25T21:23:56.575Z,13.05
2022-10-25T21:26:24.968Z,13.01
2022-10-25T21:28:53.183Z,13.03
2022-10-25T21:31:21.584Z,13.05
2022-10-25T21:33:52.527Z,13.03
2022-10-25T21:36:22.471Z,13.04
2022-10-25T21:38:50.693Z,13.04
2022-10-25T21:41:20.936Z,13.05
2022-10-25T21:43:50.869Z,13.06
2022-10-25T21:46:20.514Z,13.06
2022-10-25T21:48:51.043Z,13.06
2022-10-25T21:51:19.877Z,13.03
2022-10-25T21:53:48.252Z,13.01
2022-10-25T21:56:18.387Z,13.00
2022-10-25T21:58:47.916Z,13.04
2022-10-25T22:01:17.793Z,13.02
2022-10-25T22:03:46.065Z,13.04
2022-10-25T22:06:17.901Z,13.04
2022-10-25T22:08:46.843Z,13.04
2022-10-25T22:11:16.911Z,13.03
2022-10-25T22:13:45.810Z,13.03
2022-10-25T22:16:16.135Z,13.01
2022-10-25T22:18:44.993Z,13.03
2022-10-25T22:21:15.202Z,13.05
2022-10-25T22:23:43.435Z,13.02
2022-10-25T22:26:13.324Z,13.02
2022-10-25T22:28:42.166Z,13.06
2022-10-25T22:31:12.518Z,13.06
2022-10-25T22:33:41.546Z,13.08
2022-10-25T22:36:12.009Z,12.88
2022-10-25T22:38:42.162Z,12.96
2022-10-25T22:41:13.874Z,13.00
2022-10-25T22:43:43.220Z,12.99
2022-10-25T22:46:13.672Z,13.02
2022-10-25T22:48:44.049Z,13.00
2022-10-25T22:51:13.311Z,13.03
2022-10-25T22:53:43.658Z,13.01
2022-10-25T22:56:13.743Z,13.04
2022-10-25T22:58:43.433Z,13.02
2022-10-25T23:01:14.034Z,13.05
2022-10-25T23:03:46.852Z,13.04
2022-10-25T23:06:16.644Z,13.04
2022-10-25T23:08:46.787Z,13.05
2022-10-25T23:11:16.656Z,13.06
2022-10-25T23:13:45.096Z,13.07
2022-10-25T23:16:14.577Z,13.07
2022-10-25T23:18:43.661Z,13.10
2022-10-25T23:21:17.147Z,13.12
2022-10-25T23:23:47.545Z,13.07
2022-10-25T23:26:20.208Z,13.06
2022-10-25T23:28:48.748Z,13.06
2022-10-25T23:31:17.471Z,13.04
2022-10-25T23:33:46.069Z,13.07
2022-10-25T23:36:16.724Z,13.06
2022-10-25T23:38:46.444Z,13.05
2022-10-25T23:41:14.835Z,13.04
2022-10-25T23:43:43.275Z,12.99
2022-10-25T23:46:11.922Z,12.96
2022-10-25T23:48:40.140Z,12.99
2022-10-25T23:51:10.009Z,12.99
2022-10-25T23:53:38.425Z,13.01
2022-10-25T23:56:09.983Z,13.02
2022-10-25T23:58:38.814Z,13.03
